sensor_id;sensor_type;location;lat;lon;timestamp;temperature;humidity
13992;DHT22;7070;53.586;9.692;2024-01-30T00:01:23;5.70;91.70
13992;DHT22;7070;53.586;9.692;2024-01-30T00:03:50;5.60;91.80
13992;DHT22;7070;53.586;9.692;2024-01-30T00:06:18;5.60;91.80
13992;DHT22;7070;53.586;9.692;2024-01-30T00:08:47;5.60;91.90
13992;DHT22;7070;53.586;9.692;2024-01-30T00:11:16;5.60;91.90
13992;DHT22;7070;53.586;9.692;2024-01-30T00:13:42;5.60;91.90
13992;DHT22;7070;53.586;9.692;2024-01-30T00:16:20;5.50;92.00
13992;DHT22;7070;53.586;9.692;2024-01-30T00:18:47;5.50;92.00
13992;DHT22;7070;53.586;9.692;2024-01-30T00:21:14;5.50;91.90
13992;DHT22;7070;53.586;9.692;2024-01-30T00:23:41;5.50;91.90
13992;DHT22;7070;53.586;9.692;2024-01-30T00:26:09;5.50;91.90
13992;DHT22;7070;53.586;9.692;2024-01-30T00:28:37;5.50;92.10
13992;DHT22;7070;53.586;9.692;2024-01-30T00:31:04;5.50;92.00
13992;DHT22;7070;53.586;9.692;2024-01-30T00:33:31;5.50;92.00
13992;DHT22;7070;53.586;9.692;2024-01-30T00:35:58;5.40;91.90
13992;DHT22;7070;53.586;9.692;2024-01-30T00:38:24;5.40;91.90
13992;DHT22;7070;53.586;9.692;2024-01-30T00:40:51;5.40;91.90
13992;DHT22;7070;53.586;9.692;2024-01-30T00:43:19;5.40;91.90
13992;DHT22;7070;53.586;9.692;2024-01-30T00:45:46;5.40;91.90
13992;DHT22;7070;53.586;9.692;2024-01-30T00:48:13;5.40;91.90
13992;DHT22;7070;53.586;9.692;2024-01-30T00:50:40;5.40;91.90
13992;DHT22;7070;53.586;9.692;2024-01-30T00:53:07;5.40;91.90
13992;DHT22;7070;53.586;9.692;2024-01-30T00:55:34;5.40;91.90
13992;DHT22;7070;53.586;9.692;2024-01-30T00:58:00;5.30;91.90
13992;DHT22;7070;53.586;9.692;2024-01-30T01:00:29;5.40;92.00
13992;DHT22;7070;53.586;9.692;2024-01-30T01:02:57;5.40;91.90
13992;DHT22;7070;53.586;9.692;2024-01-30T01:05:24;5.30;92.00
13992;DHT22;7070;53.586;9.692;2024-01-30T01:07:51;5.30;91.90
13992;DHT22;7070;53.586;9.692;2024-01-30T01:10:18;5.40;92.00
13992;DHT22;7070;53.586;9.692;2024-01-30T01:12:45;5.30;92.00
13992;DHT22;7070;53.586;9.692;2024-01-30T01:15:12;5.30;92.00
13992;DHT22;7070;53.586;9.692;2024-01-30T01:17:41;5.40;92.00
13992;DHT22;7070;53.586;9.692;2024-01-30T01:20:08;5.40;92.00
13992;DHT22;7070;53.586;9.692;2024-01-30T01:22:36;5.40;92.10
13992;DHT22;7070;53.586;9.692;2024-01-30T01:25:04;5.40;92.10
13992;DHT22;7070;53.586;9.692;2024-01-30T01:27:32;5.40;92.10
13992;DHT22;7070;53.586;9.692;2024-01-30T01:30:00;5.40;92.20
13992;DHT22;7070;53.586;9.692;2024-01-30T01:32:27;5.50;92.10
13992;DHT22;7070;53.586;9.692;2024-01-30T01:34:55;5.50;92.20
13992;DHT22;7070;53.586;9.692;2024-01-30T01:37:22;5.50;92.10
13992;DHT22;7070;53.586;9.692;2024-01-30T01:39:52;5.50;92.10
13992;DHT22;7070;53.586;9.692;2024-01-30T01:42:18;5.50;92.20
13992;DHT22;7070;53.586;9.692;2024-01-30T01:44:45;5.50;92.20
13992;DHT22;7070;53.586;9.692;2024-01-30T01:47:12;5.50;92.10
13992;DHT22;7070;53.586;9.692;2024-01-30T01:49:39;6.80;92.60
13992;DHT22;7070;53.586;9.692;2024-01-30T01:52:07;5.60;92.20
13992;DHT22;7070;53.586;9.692;2024-01-30T01:54:34;5.60;92.10
13992;DHT22;7070;53.586;9.692;2024-01-30T01:57:02;5.60;92.20
13992;DHT22;7070;53.586;9.692;2024-01-30T01:59:29;5.70;92.20
13992;DHT22;7070;53.586;9.692;2024-01-30T02:01:57;5.70;92.30
13992;DHT22;7070;53.586;9.692;2024-01-30T02:04:23;5.70;92.20
13992;DHT22;7070;53.586;9.692;2024-01-30T02:06:50;5.70;92.10
13992;DHT22;7070;53.586;9.692;2024-01-30T02:09:19;5.70;92.20
13992;DHT22;7070;53.586;9.692;2024-01-30T02:11:46;5.70;92.10
13992;DHT22;7070;53.586;9.692;2024-01-30T02:14:13;5.70;92.10
13992;DHT22;7070;53.586;9.692;2024-01-30T02:16:40;5.70;92.00
13992;DHT22;7070;53.586;9.692;2024-01-30T02:19:08;5.60;91.90
13992;DHT22;7070;53.586;9.692;2024-01-30T02:21:36;5.60;91.90
13992;DHT22;7070;53.586;9.692;2024-01-30T02:24:03;5.60;91.90
13992;DHT22;7070;53.586;9.692;2024-01-30T02:26:30;5.60;91.90
13992;DHT22;7070;53.586;9.692;2024-01-30T02:28:57;5.60;91.90
13992;DHT22;7070;53.586;9.692;2024-01-30T02:31:25;5.60;91.90
13992;DHT22;7070;53.586;9.692;2024-01-30T02:33:52;5.50;91.90
13992;DHT22;7070;53.586;9.692;2024-01-30T02:36:19;5.50;91.70
13992;DHT22;7070;53.586;9.692;2024-01-30T02:38:47;5.40;91.80
13992;DHT22;7070;53.586;9.692;2024-01-30T02:41:14;5.40;91.70
13992;DHT22;7070;53.586;9.692;2024-01-30T02:43:40;5.30;91.70
13992;DHT22;7070;53.586;9.692;2024-01-30T02:46:07;5.40;91.70
13992;DHT22;7070;53.586;9.692;2024-01-30T02:48:34;5.30;91.70
13992;DHT22;7070;53.586;9.692;2024-01-30T02:51:01;5.30;91.70
13992;DHT22;7070;53.586;9.692;2024-01-30T02:53:28;5.30;91.70
13992;DHT22;7070;53.586;9.692;2024-01-30T02:55:55;5.20;91.70
13992;DHT22;7070;53.586;9.692;2024-01-30T02:58:22;5.20;91.50
13992;DHT22;7070;53.586;9.692;2024-01-30T03:00:49;5.20;91.80
13992;DHT22;7070;53.586;9.692;2024-01-30T03:03:16;5.10;91.70
13992;DHT22;7070;53.586;9.692;2024-01-30T03:05:42;5.00;91.60
13992;DHT22;7070;53.586;9.692;2024-01-30T03:08:09;5.10;91.60
13992;DHT22;7070;53.586;9.692;2024-01-30T03:10:36;5.10;91.60
13992;DHT22;7070;53.586;9.692;2024-01-30T03:13:04;5.00;91.50
13992;DHT22;7070;53.586;9.692;2024-01-30T03:15:31;5.00;91.50
13992;DHT22;7070;53.586;9.692;2024-01-30T03:17:58;4.90;91.50
13992;DHT22;7070;53.586;9.692;2024-01-30T03:20:25;4.80;91.50
13992;DHT22;7070;53.586;9.692;2024-01-30T03:22:52;4.80;91.50
13992;DHT22;7070;53.586;9.692;2024-01-30T03:25:18;4.70;91.40
13992;DHT22;7070;53.586;9.692;2024-01-30T03:27:45;4.70;91.40
13992;DHT22;7070;53.586;9.692;2024-01-30T03:30:14;4.70;91.40
13992;DHT22;7070;53.586;9.692;2024-01-30T03:32:41;4.60;91.40
13992;DHT22;7070;53.586;9.692;2024-01-30T03:35:08;4.60;91.40
13992;DHT22;7070;53.586;9.692;2024-01-30T03:37:35;4.60;91.40
13992;DHT22;7070;53.586;9.692;2024-01-30T03:40:02;4.50;91.40
13992;DHT22;7070;53.586;9.692;2024-01-30T03:42:29;4.50;91.40
13992;DHT22;7070;53.586;9.692;2024-01-30T03:44:56;4.50;91.40
13992;DHT22;7070;53.586;9.692;2024-01-30T03:47:25;4.40;91.40
13992;DHT22;7070;53.586;9.692;2024-01-30T03:49:51;4.40;91.40
13992;DHT22;7070;53.586;9.692;2024-01-30T03:52:18;4.30;91.50
13992;DHT22;7070;53.586;9.692;2024-01-30T03:54:45;4.30;91.40
13992;DHT22;7070;53.586;9.692;2024-01-30T03:57:12;4.30;91.40
13992;DHT22;7070;53.586;9.692;2024-01-30T03:59:41;4.30;91.40
13992;DHT22;7070;53.586;9.692;2024-01-30T04:02:09;4.30;91.50
13992;DHT22;7070;53.586;9.692;2024-01-30T04:04:37;4.20;91.50
13992;DHT22;7070;53.586;9.692;2024-01-30T04:07:04;4.20;91.50
13992;DHT22;7070;53.586;9.692;2024-01-30T04:09:31;4.20;91.50
13992;DHT22;7070;53.586;9.692;2024-01-30T04:11:58;4.10;91.50
13992;DHT22;7070;53.586;9.692;2024-01-30T04:14:25;4.10;91.50
13992;DHT22;7070;53.586;9.692;2024-01-30T04:16:51;4.10;91.50
13992;DHT22;7070;53.586;9.692;2024-01-30T04:19:18;4.20;91.90
13992;DHT22;7070;53.586;9.692;2024-01-30T04:21:46;4.10;91.60
13992;DHT22;7070;53.586;9.692;2024-01-30T04:24:13;4.10;91.60
13992;DHT22;7070;53.586;9.692;2024-01-30T04:26:42;4.10;91.60
13992;DHT22;7070;53.586;9.692;2024-01-30T04:29:09;4.10;91.60
13992;DHT22;7070;53.586;9.692;2024-01-30T04:31:36;4.10;91.60
13992;DHT22;7070;53.586;9.692;2024-01-30T04:34:03;4.10;91.60
13992;DHT22;7070;53.586;9.692;2024-01-30T04:36:30;4.10;91.60
13992;DHT22;7070;53.586;9.692;2024-01-30T04:38:58;4.10;91.60
13992;DHT22;7070;53.586;9.692;2024-01-30T04:41:25;4.10;92.00
13992;DHT22;7070;53.586;9.692;2024-01-30T04:43:54;4.10;91.60
13992;DHT22;7070;53.586;9.692;2024-01-30T04:46:20;4.00;91.60
13992;DHT22;7070;53.586;9.692;2024-01-30T04:48:47;4.10;91.70
13992;DHT22;7070;53.586;9.692;2024-01-30T04:51:14;4.10;91.60
13992;DHT22;7070;53.586;9.692;2024-01-30T04:53:41;4.10;91.70
13992;DHT22;7070;53.586;9.692;2024-01-30T04:56:09;4.00;91.60
13992;DHT22;7070;53.586;9.692;2024-01-30T04:58:36;4.00;91.70
13992;DHT22;7070;53.586;9.692;2024-01-30T05:01:03;4.00;91.70
13992;DHT22;7070;53.586;9.692;2024-01-30T05:03:33;4.00;91.70
13992;DHT22;7070;53.586;9.692;2024-01-30T05:06:00;4.10;91.90
13992;DHT22;7070;53.586;9.692;2024-01-30T05:08:27;4.10;91.80
13992;DHT22;7070;53.586;9.692;2024-01-30T05:10:53;4.10;91.90
13992;DHT22;7070;53.586;9.692;2024-01-30T05:13:22;4.10;91.80
13992;DHT22;7070;53.586;9.692;2024-01-30T05:15:48;4.20;91.90
13992;DHT22;7070;53.586;9.692;2024-01-30T05:18:15;4.20;91.80
13992;DHT22;7070;53.586;9.692;2024-01-30T05:20:42;4.10;91.80
13992;DHT22;7070;53.586;9.692;2024-01-30T05:23:09;4.20;91.80
13992;DHT22;7070;53.586;9.692;2024-01-30T05:25:36;4.30;91.90
13992;DHT22;7070;53.586;9.692;2024-01-30T05:28:03;4.30;91.90
13992;DHT22;7070;53.586;9.692;2024-01-30T05:30:31;4.30;91.90
13992;DHT22;7070;53.586;9.692;2024-01-30T05:32:58;4.40;92.10
13992;DHT22;7070;53.586;9.692;2024-01-30T05:35:25;4.40;92.00
13992;DHT22;7070;53.586;9.692;2024-01-30T05:37:52;4.40;92.10
13992;DHT22;7070;53.586;9.692;2024-01-30T05:40:19;4.40;92.00
13992;DHT22;7070;53.586;9.692;2024-01-30T05:42:45;4.50;92.00
13992;DHT22;7070;53.586;9.692;2024-01-30T05:45:12;4.60;92.00
13992;DHT22;7070;53.586;9.692;2024-01-30T05:47:41;4.60;92.00
13992;DHT22;7070;53.586;9.692;2024-01-30T05:50:07;4.60;91.90
13992;DHT22;7070;53.586;9.692;2024-01-30T05:52:34;4.70;92.00
13992;DHT22;7070;53.586;9.692;2024-01-30T05:55:01;4.60;91.90
13992;DHT22;7070;53.586;9.692;2024-01-30T05:57:28;4.60;92.00
13992;DHT22;7070;53.586;9.692;2024-01-30T05:59:55;4.70;92.00
13992;DHT22;7070;53.586;9.692;2024-01-30T06:02:22;4.60;92.00
13992;DHT22;7070;53.586;9.692;2024-01-30T06:04:50;4.70;92.10
13992;DHT22;7070;53.586;9.692;2024-01-30T06:07:17;4.70;92.10
13992;DHT22;7070;53.586;9.692;2024-01-30T06:09:44;4.70;92.20
13992;DHT22;7070;53.586;9.692;2024-01-30T06:12:12;4.80;92.20
13992;DHT22;7070;53.586;9.692;2024-01-30T06:14:38;4.80;92.20
13992;DHT22;7070;53.586;9.692;2024-01-30T06:17:07;4.90;92.40
13992;DHT22;7070;53.586;9.692;2024-01-30T06:19:34;5.00;92.50
13992;DHT22;7070;53.586;9.692;2024-01-30T06:22:06;5.10;92.40
13992;DHT22;7070;53.586;9.692;2024-01-30T06:24:33;5.10;92.20
13992;DHT22;7070;53.586;9.692;2024-01-30T06:27:00;5.20;92.60
13992;DHT22;7070;53.586;9.692;2024-01-30T06:29:27;5.30;92.40
13992;DHT22;7070;53.586;9.692;2024-01-30T06:31:54;5.30;92.40
13992;DHT22;7070;53.586;9.692;2024-01-30T06:34:21;5.40;92.40
13992;DHT22;7070;53.586;9.692;2024-01-30T06:36:48;5.40;92.40
13992;DHT22;7070;53.586;9.692;2024-01-30T06:39:16;5.40;92.30
13992;DHT22;7070;53.586;9.692;2024-01-30T06:41:43;5.50;92.20
13992;DHT22;7070;53.586;9.692;2024-01-30T06:44:12;5.40;92.10
13992;DHT22;7070;53.586;9.692;2024-01-30T06:46:39;5.50;92.50
13992;DHT22;7070;53.586;9.692;2024-01-30T06:49:06;5.50;92.10
13992;DHT22;7070;53.586;9.692;2024-01-30T06:51:32;5.50;92.20
13992;DHT22;7070;53.586;9.692;2024-01-30T06:53:59;5.40;92.10
13992;DHT22;7070;53.586;9.692;2024-01-30T06:56:28;5.50;92.10
13992;DHT22;7070;53.586;9.692;2024-01-30T06:58:55;5.40;92.00
13992;DHT22;7070;53.586;9.692;2024-01-30T07:01:27;5.50;92.10
13992;DHT22;7070;53.586;9.692;2024-01-30T07:03:54;5.50;92.00
13992;DHT22;7070;53.586;9.692;2024-01-30T07:06:21;5.40;91.90
13992;DHT22;7070;53.586;9.692;2024-01-30T07:08:49;5.40;92.00
13992;DHT22;7070;53.586;9.692;2024-01-30T07:11:18;5.40;91.90
13992;DHT22;7070;53.586;9.692;2024-01-30T07:13:47;5.40;92.10
13992;DHT22;7070;53.586;9.692;2024-01-30T07:16:13;5.40;91.90
13992;DHT22;7070;53.586;9.692;2024-01-30T07:18:40;5.40;92.00
13992;DHT22;7070;53.586;9.692;2024-01-30T07:21:07;5.40;92.00
13992;DHT22;7070;53.586;9.692;2024-01-30T07:23:35;5.40;92.10
13992;DHT22;7070;53.586;9.692;2024-01-30T07:26:04;5.40;92.00
13992;DHT22;7070;53.586;9.692;2024-01-30T07:28:32;5.40;92.10
13992;DHT22;7070;53.586;9.692;2024-01-30T07:31:00;5.50;92.20
13992;DHT22;7070;53.586;9.692;2024-01-30T07:33:27;5.50;92.20
13992;DHT22;7070;53.586;9.692;2024-01-30T07:35:54;5.50;92.20
13992;DHT22;7070;53.586;9.692;2024-01-30T07:38:20;5.60;92.30
13992;DHT22;7070;53.586;9.692;2024-01-30T07:40:47;5.60;92.30
13992;DHT22;7070;53.586;9.692;2024-01-30T07:43:14;5.70;92.30
13992;DHT22;7070;53.586;9.692;2024-01-30T07:45:41;5.70;92.30
13992;DHT22;7070;53.586;9.692;2024-01-30T07:48:09;5.80;92.40
13992;DHT22;7070;53.586;9.692;2024-01-30T07:50:36;5.80;92.40
13992;DHT22;7070;53.586;9.692;2024-01-30T07:53:03;5.90;92.40
13992;DHT22;7070;53.586;9.692;2024-01-30T07:55:30;6.00;92.50
13992;DHT22;7070;53.586;9.692;2024-01-30T08:01:26;6.10;92.30
13992;DHT22;7070;53.586;9.692;2024-01-30T08:03:54;6.20;92.50
13992;DHT22;7070;53.586;9.692;2024-01-30T08:06:21;6.20;92.60
13992;DHT22;7070;53.586;9.692;2024-01-30T08:08:48;6.30;92.60
13992;DHT22;7070;53.586;9.692;2024-01-30T08:11:15;6.40;92.60
13992;DHT22;7070;53.586;9.692;2024-01-30T08:13:42;6.50;92.70
13992;DHT22;7070;53.586;9.692;2024-01-30T08:16:09;6.60;92.70
13992;DHT22;7070;53.586;9.692;2024-01-30T08:18:36;6.70;92.70
13992;DHT22;7070;53.586;9.692;2024-01-30T08:21:04;6.70;92.70
13992;DHT22;7070;53.586;9.692;2024-01-30T08:23:31;6.80;92.70
13992;DHT22;7070;53.586;9.692;2024-01-30T08:25:58;6.80;92.60
13992;DHT22;7070;53.586;9.692;2024-01-30T08:28:25;7.00;92.70
13992;DHT22;7070;53.586;9.692;2024-01-30T08:30:52;7.00;92.70
13992;DHT22;7070;53.586;9.692;2024-01-30T08:33:18;7.00;93.10
13992;DHT22;7070;53.586;9.692;2024-01-30T08:35:45;7.10;92.70
13992;DHT22;7070;53.586;9.692;2024-01-30T08:38:13;7.20;92.70
13992;DHT22;7070;53.586;9.692;2024-01-30T08:40:40;7.20;92.60
13992;DHT22;7070;53.586;9.692;2024-01-30T08:43:07;7.30;92.60
13992;DHT22;7070;53.586;9.692;2024-01-30T08:45:35;7.30;92.90
13992;DHT22;7070;53.586;9.692;2024-01-30T08:48:02;7.40;92.50
13992;DHT22;7070;53.586;9.692;2024-01-30T08:50:29;7.40;92.50
13992;DHT22;7070;53.586;9.692;2024-01-30T08:52:56;7.40;92.40
13992;DHT22;7070;53.586;9.692;2024-01-30T08:55:24;7.40;92.50
13992;DHT22;7070;53.586;9.692;2024-01-30T08:57:51;7.50;92.50
13992;DHT22;7070;53.586;9.692;2024-01-30T09:00:19;7.50;92.50
13992;DHT22;7070;53.586;9.692;2024-01-30T09:02:45;7.50;92.40
13992;DHT22;7070;53.586;9.692;2024-01-30T09:05:12;7.60;92.50
13992;DHT22;7070;53.586;9.692;2024-01-30T09:07:39;7.60;92.50
13992;DHT22;7070;53.586;9.692;2024-01-30T09:10:07;7.60;92.50
13992;DHT22;7070;53.586;9.692;2024-01-30T09:12:35;7.70;92.50
13992;DHT22;7070;53.586;9.692;2024-01-30T09:15:02;7.80;92.60
13992;DHT22;7070;53.586;9.692;2024-01-30T09:17:29;7.90;92.60
13992;DHT22;7070;53.586;9.692;2024-01-30T09:19:56;7.80;92.60
13992;DHT22;7070;53.586;9.692;2024-01-30T09:22:23;7.90;92.60
13992;DHT22;7070;53.586;9.692;2024-01-30T09:24:50;7.90;92.50
13992;DHT22;7070;53.586;9.692;2024-01-30T09:27:17;8.00;92.60
13992;DHT22;7070;53.586;9.692;2024-01-30T09:29:44;8.00;92.60
13992;DHT22;7070;53.586;9.692;2024-01-30T09:32:11;8.10;92.60
13992;DHT22;7070;53.586;9.692;2024-01-30T09:34:37;8.20;92.60
13992;DHT22;7070;53.586;9.692;2024-01-30T09:37:05;8.20;92.50
13992;DHT22;7070;53.586;9.692;2024-01-30T09:39:32;8.20;92.50
13992;DHT22;7070;53.586;9.692;2024-01-30T09:42:04;8.30;92.60
13992;DHT22;7070;53.586;9.692;2024-01-30T09:44:34;8.40;92.70
13992;DHT22;7070;53.586;9.692;2024-01-30T09:47:04;8.40;92.70
13992;DHT22;7070;53.586;9.692;2024-01-30T09:49:32;8.50;92.70
13992;DHT22;7070;53.586;9.692;2024-01-30T09:51:59;8.60;92.70
13992;DHT22;7070;53.586;9.692;2024-01-30T09:54:26;8.60;92.80
13992;DHT22;7070;53.586;9.692;2024-01-30T09:56:53;8.80;92.90
13992;DHT22;7070;53.586;9.692;2024-01-30T09:59:20;8.90;92.90
13992;DHT22;7070;53.586;9.692;2024-01-30T10:01:47;8.90;92.90
13992;DHT22;7070;53.586;9.692;2024-01-30T10:04:15;9.10;93.00
13992;DHT22;7070;53.586;9.692;2024-01-30T10:06:42;9.20;93.10
13992;DHT22;7070;53.586;9.692;2024-01-30T10:09:09;9.20;93.10
13992;DHT22;7070;53.586;9.692;2024-01-30T10:11:36;9.40;93.40
13992;DHT22;7070;53.586;9.692;2024-01-30T10:14:03;9.40;93.30
13992;DHT22;7070;53.586;9.692;2024-01-30T10:16:30;9.60;93.10
13992;DHT22;7070;53.586;9.692;2024-01-30T10:18:57;9.60;93.00
13992;DHT22;7070;53.586;9.692;2024-01-30T10:21:25;9.80;93.40
13992;DHT22;7070;53.586;9.692;2024-01-30T10:23:52;9.80;93.10
13992;DHT22;7070;53.586;9.692;2024-01-30T10:26:19;9.80;93.00
13992;DHT22;7070;53.586;9.692;2024-01-30T10:28:48;9.90;93.10
13992;DHT22;7070;53.586;9.692;2024-01-30T10:31:16;10.00;92.70
13992;DHT22;7070;53.586;9.692;2024-01-30T10:33:44;10.10;92.70
13992;DHT22;7070;53.586;9.692;2024-01-30T10:36:13;10.20;92.80
13992;DHT22;7070;53.586;9.692;2024-01-30T10:38:42;10.30;92.80
13992;DHT22;7070;53.586;9.692;2024-01-30T10:41:13;10.50;92.80
13992;DHT22;7070;53.586;9.692;2024-01-30T10:43:42;10.60;92.80
13992;DHT22;7070;53.586;9.692;2024-01-30T10:46:17;10.60;92.70
13992;DHT22;7070;53.586;9.692;2024-01-30T10:48:50;10.70;92.70
13992;DHT22;7070;53.586;9.692;2024-01-30T10:51:18;10.80;92.80
13992;DHT22;7070;53.586;9.692;2024-01-30T10:53:49;10.80;92.70
13992;DHT22;7070;53.586;9.692;2024-01-30T10:56:17;10.90;92.70
13992;DHT22;7070;53.586;9.692;2024-01-30T10:58:45;11.00;92.70
13992;DHT22;7070;53.586;9.692;2024-01-30T11:01:12;11.00;92.70
13992;DHT22;7070;53.586;9.692;2024-01-30T11:03:39;11.10;92.70
13992;DHT22;7070;53.586;9.692;2024-01-30T11:06:10;11.10;92.70
13992;DHT22;7070;53.586;9.692;2024-01-30T11:08:39;11.10;92.70
13992;DHT22;7070;53.586;9.692;2024-01-30T11:11:10;11.30;92.70
13992;DHT22;7070;53.586;9.692;2024-01-30T11:13:37;11.30;92.70
13992;DHT22;7070;53.586;9.692;2024-01-30T11:16:04;11.40;92.70
13992;DHT22;7070;53.586;9.692;2024-01-30T11:18:32;11.40;92.70
13992;DHT22;7070;53.586;9.692;2024-01-30T11:21:00;11.40;92.70
13992;DHT22;7070;53.586;9.692;2024-01-30T11:23:28;11.50;92.70
13992;DHT22;7070;53.586;9.692;2024-01-30T11:25:56;11.50;92.70
13992;DHT22;7070;53.586;9.692;2024-01-30T11:28:25;11.50;92.60
13992;DHT22;7070;53.586;9.692;2024-01-30T11:31:03;11.50;92.60
13992;DHT22;7070;53.586;9.692;2024-01-30T11:33:30;11.50;92.60
13992;DHT22;7070;53.586;9.692;2024-01-30T11:35:58;11.60;92.60
13992;DHT22;7070;53.586;9.692;2024-01-30T11:38:26;11.60;92.60
13992;DHT22;7070;53.586;9.692;2024-01-30T11:40:54;11.60;92.60
13992;DHT22;7070;53.586;9.692;2024-01-30T11:43:22;11.50;92.60
13992;DHT22;7070;53.586;9.692;2024-01-30T11:45:50;11.60;92.60
13992;DHT22;7070;53.586;9.692;2024-01-30T11:48:17;11.60;92.70
13992;DHT22;7070;53.586;9.692;2024-01-30T11:50:44;11.60;92.60
13992;DHT22;7070;53.586;9.692;2024-01-30T11:53:11;11.60;92.60
13992;DHT22;7070;53.586;9.692;2024-01-30T11:55:38;11.60;92.60
13992;DHT22;7070;53.586;9.692;2024-01-30T11:58:05;11.60;92.60
13992;DHT22;7070;53.586;9.692;2024-01-30T12:00:32;11.60;92.60
13992;DHT22;7070;53.586;9.692;2024-01-30T12:03:01;11.50;92.60
13992;DHT22;7070;53.586;9.692;2024-01-30T12:05:28;11.50;92.60
13992;DHT22;7070;53.586;9.692;2024-01-30T12:07:56;11.50;92.60
13992;DHT22;7070;53.586;9.692;2024-01-30T12:10:24;11.50;92.60
13992;DHT22;7070;53.586;9.692;2024-01-30T12:12:52;11.50;92.60
13992;DHT22;7070;53.586;9.692;2024-01-30T12:15:21;11.50;92.60
13992;DHT22;7070;53.586;9.692;2024-01-30T12:17:48;11.60;92.60
13992;DHT22;7070;53.586;9.692;2024-01-30T12:20:18;11.50;92.60
13992;DHT22;7070;53.586;9.692;2024-01-30T12:22:46;11.40;92.70
13992;DHT22;7070;53.586;9.692;2024-01-30T12:25:15;11.60;92.70
13992;DHT22;7070;53.586;9.692;2024-01-30T12:27:43;11.60;92.80
13992;DHT22;7070;53.586;9.692;2024-01-30T12:30:12;11.60;92.80
13992;DHT22;7070;53.586;9.692;2024-01-30T12:32:40;11.60;92.80
13992;DHT22;7070;53.586;9.692;2024-01-30T12:35:09;11.60;92.90
13992;DHT22;7070;53.586;9.692;2024-01-30T12:37:37;11.70;93.00
13992;DHT22;7070;53.586;9.692;2024-01-30T12:40:05;11.70;92.90
13992;DHT22;7070;53.586;9.692;2024-01-30T12:42:33;11.70;92.90
13992;DHT22;7070;53.586;9.692;2024-01-30T12:45:00;11.80;92.90
13992;DHT22;7070;53.586;9.692;2024-01-30T12:47:27;11.80;92.90
13992;DHT22;7070;53.586;9.692;2024-01-30T12:49:54;11.80;92.90
13992;DHT22;7070;53.586;9.692;2024-01-30T12:52:21;11.80;93.00
13992;DHT22;7070;53.586;9.692;2024-01-30T12:54:50;11.80;92.90
13992;DHT22;7070;53.586;9.692;2024-01-30T12:57:18;11.80;93.00
13992;DHT22;7070;53.586;9.692;2024-01-30T12:59:45;11.80;92.90
13992;DHT22;7070;53.586;9.692;2024-01-30T13:02:13;11.80;92.90
13992;DHT22;7070;53.586;9.692;2024-01-30T13:04:40;11.80;92.90
13992;DHT22;7070;53.586;9.692;2024-01-30T13:07:07;11.80;92.90
13992;DHT22;7070;53.586;9.692;2024-01-30T13:09:34;11.80;93.00
13992;DHT22;7070;53.586;9.692;2024-01-30T13:12:02;11.90;93.00
13992;DHT22;7070;53.586;9.692;2024-01-30T13:14:29;11.80;93.00
13992;DHT22;7070;53.586;9.692;2024-01-30T13:16:56;11.80;92.90
13992;DHT22;7070;53.586;9.692;2024-01-30T13:19:23;11.80;92.90
13992;DHT22;7070;53.586;9.692;2024-01-30T13:21:49;11.80;93.00
13992;DHT22;7070;53.586;9.692;2024-01-30T13:24:16;11.80;92.90
13992;DHT22;7070;53.586;9.692;2024-01-30T13:26:46;11.70;92.90
13992;DHT22;7070;53.586;9.692;2024-01-30T13:29:15;11.70;93.10
13992;DHT22;7070;53.586;9.692;2024-01-30T13:31:42;11.80;93.00
13992;DHT22;7070;53.586;9.692;2024-01-30T13:34:09;11.80;93.00
13992;DHT22;7070;53.586;9.692;2024-01-30T13:36:36;11.70;92.90
13992;DHT22;7070;53.586;9.692;2024-01-30T13:39:03;11.80;93.00
13992;DHT22;7070;53.586;9.692;2024-01-30T13:41:32;11.80;92.90
13992;DHT22;7070;53.586;9.692;2024-01-30T13:43:59;11.80;92.80
13992;DHT22;7070;53.586;9.692;2024-01-30T13:46:30;11.80;92.90
13992;DHT22;7070;53.586;9.692;2024-01-30T13:48:57;11.70;92.80
13992;DHT22;7070;53.586;9.692;2024-01-30T13:51:23;11.70;92.80
13992;DHT22;7070;53.586;9.692;2024-01-30T13:53:50;11.80;92.90
13992;DHT22;7070;53.586;9.692;2024-01-30T13:56:17;11.70;92.80
13992;DHT22;7070;53.586;9.692;2024-01-30T13:58:45;11.60;92.80
13992;DHT22;7070;53.586;9.692;2024-01-30T14:01:11;11.70;92.80
13992;DHT22;7070;53.586;9.692;2024-01-30T14:03:40;11.60;92.80
13992;DHT22;7070;53.586;9.692;2024-01-30T14:06:07;11.60;92.80
13992;DHT22;7070;53.586;9.692;2024-01-30T14:08:33;11.50;92.70
13992;DHT22;7070;53.586;9.692;2024-01-30T14:11:00;11.60;92.80
13992;DHT22;7070;53.586;9.692;2024-01-30T14:13:27;11.50;92.70
13992;DHT22;7070;53.586;9.692;2024-01-30T14:15:55;11.50;93.00
13992;DHT22;7070;53.586;9.692;2024-01-30T14:18:22;11.40;92.70
13992;DHT22;7070;53.586;9.692;2024-01-30T14:20:52;11.40;92.70
13992;DHT22;7070;53.586;9.692;2024-01-30T14:23:20;11.50;92.80
13992;DHT22;7070;53.586;9.692;2024-01-30T14:25:47;11.40;92.80
13992;DHT22;7070;53.586;9.692;2024-01-30T14:28:14;11.40;92.80
13992;DHT22;7070;53.586;9.692;2024-01-30T14:30:41;11.40;92.80
13992;DHT22;7070;53.586;9.692;2024-01-30T14:33:08;11.40;92.90
13992;DHT22;7070;53.586;9.692;2024-01-30T14:35:35;11.40;92.90
13992;DHT22;7070;53.586;9.692;2024-01-30T14:38:03;11.40;92.90
13992;DHT22;7070;53.586;9.692;2024-01-30T14:40:33;11.40;92.90
13992;DHT22;7070;53.586;9.692;2024-01-30T14:42:59;11.50;92.90
13992;DHT22;7070;53.586;9.692;2024-01-30T14:45:26;11.40;92.80
13992;DHT22;7070;53.586;9.692;2024-01-30T14:47:53;11.40;92.90
13992;DHT22;7070;53.586;9.692;2024-01-30T14:50:21;11.40;92.90
13992;DHT22;7070;53.586;9.692;2024-01-30T14:52:48;11.40;92.90
13992;DHT22;7070;53.586;9.692;2024-01-30T14:55:17;11.50;93.00
13992;DHT22;7070;53.586;9.692;2024-01-30T14:57:44;11.50;93.00
13992;DHT22;7070;53.586;9.692;2024-01-30T15:00:12;11.40;93.00
13992;DHT22;7070;53.586;9.692;2024-01-30T15:02:39;11.50;93.00
13992;DHT22;7070;53.586;9.692;2024-01-30T15:05:06;11.50;92.90
13992;DHT22;7070;53.586;9.692;2024-01-30T15:07:33;11.40;92.90
13992;DHT22;7070;53.586;9.692;2024-01-30T15:10:01;11.50;92.90
13992;DHT22;7070;53.586;9.692;2024-01-30T15:12:30;11.40;92.90
13992;DHT22;7070;53.586;9.692;2024-01-30T15:14:57;11.40;92.90
13992;DHT22;7070;53.586;9.692;2024-01-30T15:17:24;11.40;92.90
13992;DHT22;7070;53.586;9.692;2024-01-30T15:19:51;11.40;93.00
13992;DHT22;7070;53.586;9.692;2024-01-30T15:22:18;11.50;93.00
13992;DHT22;7070;53.586;9.692;2024-01-30T15:24:45;11.40;92.90
13992;DHT22;7070;53.586;9.692;2024-01-30T15:27:12;11.40;93.00
13992;DHT22;7070;53.586;9.692;2024-01-30T15:29:40;11.40;92.90
13992;DHT22;7070;53.586;9.692;2024-01-30T15:32:07;11.40;92.80
13992;DHT22;7070;53.586;9.692;2024-01-30T15:34:34;11.30;92.60
13992;DHT22;7070;53.586;9.692;2024-01-30T15:37:01;11.30;92.70
13992;DHT22;7070;53.586;9.692;2024-01-30T15:39:28;11.30;92.70
13992;DHT22;7070;53.586;9.692;2024-01-30T15:41:55;11.20;92.40
13992;DHT22;7070;53.586;9.692;2024-01-30T15:44:24;11.20;92.40
13992;DHT22;7070;53.586;9.692;2024-01-30T15:46:52;11.10;92.20
13992;DHT22;7070;53.586;9.692;2024-01-30T15:49:19;11.00;92.10
13992;DHT22;7070;53.586;9.692;2024-01-30T15:51:46;10.90;92.10
13992;DHT22;7070;53.586;9.692;2024-01-30T15:54:13;10.90;92.30
13992;DHT22;7070;53.586;9.692;2024-01-30T15:56:40;10.80;92.30
13992;DHT22;7070;53.586;9.692;2024-01-30T15:59:07;10.70;92.30
13992;DHT22;7070;53.586;9.692;2024-01-30T16:01:33;10.60;92.20